British Gannet — MGRX9 — position and weather

sailwx.info

Track history (hours):
 
Tides and Currents Weather Stations Pressure Air Temp Water Temp Dewpoint Dewpoint Depression Visibility Wind Speed Wind Dir Waves Ship Positions

British Gannet

Last reported at 2014-Nov-26 08:00 UTC. Time now 2014-Nov-26 18:39 UTC.
Position N 01°06' E 106°00'.

Length 233 m; draft 10.2 m.

Type: Tanker. MMSI: 232150000.

Wind from 330 at 5 knots

Barometer 1006.4 mb
Air temperature 31.5 ° C
Visibility: greater than 5.4 NM
Dewpoint 24.4 ° C
Water temperature 27.4 ° C

Date/timePositionNaut miles runAvg speedWind from/ knotsBaromVisibWave heightAir tempDewpointWater temp
2014-Nov-26 08:00N 01°06' E 106°00'11311.7 330 / 51006.4 5.4 31.524.427.4
2014-Nov-25 22:20N 01°15' E 104°07'911.4
2014-Nov-25 21:33N 01°14' E 103°58'1110.8
2014-Nov-25 20:32N 01°10' E 103°48'8 2.4
2014-Nov-25 17:09N 01°14' E 103°41'0 0.0
2014-Nov-24 15:33N 01°14' E 103°41'13 6.3
2014-Nov-24 13:33N 01°13' E 103°54'3 2.7
2014-Nov-24 12:30N 01°16' E 103°55'0 0.1
2014-Nov-24 11:33N 01°16' E 103°55'0 0.0
2014-Nov-24 09:33N 01°16' E 103°55'0 0.0
2014-Nov-24 08:18N 01°16' E 103°55'0 0.0
2014-Nov-24 06:33N 01°16' E 103°55'0 0.0
2014-Nov-24 05:15N 01°16' E 103°55'4 1.7
2014-Nov-24 03:00N 01°12' E 103°54'4 7.2 180 / 21011.310.8 28.025.227.4
2014-Nov-24 02:30N 01°15' E 103°55'0 0.0
2014-Nov-24 01:33N 01°15' E 103°55'0 0.0
2014-Nov-24 00:21N 01°15' E 103°55'410.1
2014-Nov-24 00:00N 01°12' E 103°54'4 6.5 240 / 61010.1 5.4 27.523.927.4
2014-Nov-23 23:27N 01°15' E 103°55'0 0.0
2014-Nov-23 22:15N 01°15' E 103°55'0 0.0
2014-Nov-23 21:30N 01°15' E 103°55'0 0.1
2014-Nov-23 20:24N 01°15' E 103°55'0 0.0
2014-Nov-23 19:08N 01°15' E 103°55'0 0.0
2014-Nov-23 18:32N 01°15' E 103°55'0 0.0
2014-Nov-23 17:20N 01°15' E 103°55'0 0.1
2014-Nov-23 13:17N 01°16' E 103°55'0 0.1
2014-Nov-23 12:32N 01°16' E 103°55'4 6.9
2014-Nov-23 12:00N 01°12' E 103°54'4 6.3 280 / 31009.1 5.4 27.523.927.7
2014-Nov-23 11:23N 01°16' E 103°55'0 0.0
2014-Nov-23 09:20N 01°16' E 103°55'4 2.8
2014-Nov-23 08:00N 01°12' E 103°54'4 7.5 260 / 71007.9 5.4 29.024.827.5
2014-Nov-23 07:29N 01°16' E 103°55'0 0.0
2014-Nov-23 06:29N 01°16' E 103°55'0 0.1
2014-Nov-23 05:32N 01°16' E 103°55'0 0.1
2014-Nov-23 04:23N 01°15' E 103°55'0 0.1
2014-Nov-23 03:17N 01°15' E 103°55'412.2
2014-Nov-23 03:00N 01°12' E 103°54'4 5.9 050 / 51010.910.8 30.027.332.0
2014-Nov-23 02:23N 01°15' E 103°55'0 0.1
2014-Nov-23 01:23N 01°15' E 103°55'4 2.6
2014-Nov-23 00:00N 01°12' E 103°54'4 7.8 310 / 21010.0 5.4 27.524.727.4
2014-Nov-22 23:32N 01°15' E 103°55'0 0.0
2014-Nov-22 21:23N 01°15' E 103°55'4 9.2
2014-Nov-22 21:00N 01°12' E 103°54'4 7.7 360 / 51008.8 5.4 28.025.227.4
2014-Nov-22 20:32N 01°15' E 103°55'0 0.0
2014-Nov-22 19:17N 01°15' E 103°55'0 0.0
2014-Nov-22 18:32N 01°15' E 103°55'0 0.0
2014-Nov-22 17:05N 01°15' E 103°55'0 0.0
2014-Nov-22 16:26N 01°15' E 103°55'0 0.0
2014-Nov-22 15:20N 01°15' E 103°55'410.5
2014-Nov-22 15:00N 01°12' E 103°54'4 4.6 050 / 51010.9 5.4 29.024.8
2014-Nov-22 14:14N 01°15' E 103°55'0 0.1
2014-Nov-22 11:26N 01°16' E 103°55'0 0.0
2014-Nov-22 10:20N 01°16' E 103°55'4 2.8
2014-Nov-22 09:00N 01°12' E 103°54'4 8.1 110 / 51007.9 5.4 28.025.227.5
2014-Nov-22 08:31N 01°16' E 103°55'0 0.1
2014-Nov-22 07:19N 01°16' E 103°55'0 0.1
2014-Nov-22 06:07N 01°15' E 103°55'0 0.0
2014-Nov-22 05:31N 01°15' E 103°55'0 0.1
2014-Nov-22 04:25N 01°16' E 103°55'0 0.1
2014-Nov-22 01:19N 01°15' E 103°55'0 0.0
2014-Nov-22 00:28N 01°15' E 103°55'4 2.4
2014-Nov-21 23:00N 01°12' E 103°54'4 1.9 020 / 41009.6 5.4 27.024.127.5
2014-Nov-21 21:07N 01°15' E 103°55'0 0.0
2014-Nov-21 19:07N 01°15' E 103°55'0 0.0
2014-Nov-21 18:31N 01°15' E 103°55'0 0.0
2014-Nov-21 15:13N 01°15' E 103°55'0 0.0
2014-Nov-21 14:31N 01°15' E 103°55'0 0.0
2014-Nov-21 13:28N 01°15' E 103°55'0 0.0
2014-Nov-21 12:28N 01°15' E 103°55'0 0.1
2014-Nov-21 10:28N 01°16' E 103°55'0 0.1
2014-Nov-21 09:25N 01°16' E 103°55'0 0.0
2014-Nov-21 08:07N 01°16' E 103°55'0 0.0
2014-Nov-21 07:31N 01°16' E 103°55'0 0.1
2014-Nov-21 06:31N 01°16' E 103°55'0 0.0
2014-Nov-21 04:31N 01°16' E 103°55'0 0.2
2014-Nov-21 03:25N 01°16' E 103°55'0 0.1
2014-Nov-21 01:19N 01°15' E 103°55'4 1.5
2014-Nov-20 23:00N 01°12' E 103°54'4 1.3 300 / 31010.0 5.4 27.024.127.5
2014-Nov-20 20:18N 01°15' E 103°55'0 0.0
2014-Nov-20 19:24N 01°15' E 103°55'0 0.1
2014-Nov-20 18:33N 01°15' E 103°55'0 0.0
2014-Nov-20 17:15N 01°15' E 103°55'0 0.0
2014-Nov-20 16:12N 01°15' E 103°55'0 0.1
2014-Nov-20 15:27N 01°15' E 103°55'0 0.0
2014-Nov-20 14:12N 01°15' E 103°55'0 0.0
2014-Nov-20 10:15N 01°15' E 103°55'0 0.1
2014-Nov-20 08:33N 01°15' E 103°55'0 0.1
2014-Nov-20 07:18N 01°16' E 103°55'0 0.1
2014-Nov-20 06:24N 01°16' E 103°55'0 0.1
2014-Nov-20 03:09N 01°15' E 103°55'0 0.0
2014-Nov-20 00:27N 01°15' E 103°55'0 0.0
2014-Nov-19 22:24N 01°15' E 103°55'0 0.0
2014-Nov-19 21:21N 01°15' E 103°55'0 0.0
2014-Nov-19 20:18N 01°15' E 103°55'0 0.0
2014-Nov-19 18:15N 01°15' E 103°55'0 0.0
2014-Nov-19 17:30N 01°15' E 103°55'0 0.0
2014-Nov-19 16:06N 01°15' E 103°55'0 0.0
2014-Nov-19 12:24N 01°15' E 103°55'0 0.0
2014-Nov-19 10:20N 01°15' E 103°55'0 0.0
2014-Nov-19 09:05N 01°15' E 103°55'4 1.7
2014-Nov-19 07:00N 01°12' E 103°54'4 8.3 120 / 81009.1 5.4 33.022.127.5
2014-Nov-19 06:32N 01°16' E 103°55'0 0.0
2014-Nov-19 05:23N 01°16' E 103°55'0 0.0
2014-Nov-19 00:32N 01°15' E 103°55'4 6.6
2014-Nov-19 00:00N 01°12' E 103°54'4 5.9 330 / 21011.5 5.4 26.524.427.4
2014-Nov-18 23:23N 01°15' E 103°55'0 0.0
2014-Nov-18 22:14N 01°15' E 103°55'0 0.0
2014-Nov-18 21:17N 01°15' E 103°55'0 0.0
2014-Nov-18 19:23N 01°15' E 103°55'0 0.0
2014-Nov-18 17:32N 01°15' E 103°55'0 0.0
2014-Nov-18 16:29N 01°15' E 103°55'0 0.0
2014-Nov-18 13:32N 01°15' E 103°55'0 0.0
2014-Nov-18 11:23N 01°15' E 103°55'0 0.0
2014-Nov-18 10:32N 01°15' E 103°55'0 0.0
2014-Nov-18 09:11N 01°15' E 103°55'4 3.0
2014-Nov-18 08:00N 01°12' E 103°54'4 5.8 050 / 51009.610.8 26.024.627.7
2014-Nov-18 07:23N 01°15' E 103°55'0 0.0
2014-Nov-18 06:29N 01°15' E 103°55'0 0.0
2014-Nov-18 04:17N 01°15' E 103°55'0 0.0
2014-Nov-18 02:29N 01°15' E 103°55'0 0.0
2014-Nov-18 00:22N 01°15' E 103°55'0 0.0
2014-Nov-17 23:22N 01°15' E 103°55'0 0.0
2014-Nov-17 21:22N 01°15' E 103°55'0 0.0
2014-Nov-17 20:28N 01°15' E 103°55'4 7.4
2014-Nov-17 20:00N 01°12' E 103°54'4 3.8 330 / 51008.2 5.4 27.023.227.9
2014-Nov-17 19:04N 01°15' E 103°55'0 0.0
2014-Nov-17 18:16N 01°15' E 103°55'0 0.0
2014-Nov-17 17:31N 01°15' E 103°55'0 0.0
2014-Nov-17 16:28N 01°15' E 103°55'0 0.0
2014-Nov-17 15:25N 01°15' E 103°55'0 0.0
2014-Nov-17 14:31N 01°15' E 103°55'0 0.0
2014-Nov-17 13:28N 01°15' E 103°55'0 0.0
2014-Nov-17 10:13N 01°15' E 103°55'0 0.0
2014-Nov-17 08:16N 01°15' E 103°55'4 1.1
2014-Nov-17 05:00N 01°12' E 103°54'4 1.9 160 / 91008.4 5.4 35.023.727.9
2014-Nov-17 03:04N 01°15' E 103°55'0 0.0
2014-Nov-17 01:22N 01°15' E 103°55'0 0.0
2014-Nov-17 00:22N 01°15' E 103°55'0 0.0
2014-Nov-16 23:31N 01°15' E 103°55'0 0.0
2014-Nov-16 22:28N 01°15' E 103°55'0 0.0
2014-Nov-16 21:16N 01°15' E 103°55'0 0.0
2014-Nov-16 20:16N 01°15' E 103°55'0 0.1
2014-Nov-16 19:22N 01°15' E 103°55'0 0.1
2014-Nov-16 17:31N 01°15' E 103°55'0 0.0
2014-Nov-16 09:33N 01°15' E 103°55'  
Track history (hours):
 
Tides and Currents Weather Stations Pressure Air Temp Water Temp Dewpoint Dewpoint Depression Visibility Wind Speed Wind Dir Waves Ship Positions

British Gannet

Last reported at 2014-Nov-26 08:00 UTC. Time now 2014-Nov-26 18:39 UTC.
Position N 01°06' E 106°00'.

Length 233 m; draft 10.2 m.

Type: Tanker. MMSI: 232150000.

Wind from 330 at 5 knots

Barometer 1006.4 mb
Air temperature 31.5 ° C
Visibility: greater than 5.4 NM
Dewpoint 24.4 ° C
Water temperature 27.4 ° C

Date/timePositionNaut miles runAvg speedWind from/ knotsBaromVisibWave heightAir tempDewpointWater temp
2014-Nov-26 08:00N 01°06' E 106°00'11311.7 330 / 51006.4 5.4 31.524.427.4
2014-Nov-25 22:20N 01°15' E 104°07'911.4
2014-Nov-25 21:33N 01°14' E 103°58'1110.8
2014-Nov-25 20:32N 01°10' E 103°48'8 2.4
2014-Nov-25 17:09N 01°14' E 103°41'0 0.0
2014-Nov-24 15:33N 01°14' E 103°41'13 6.3
2014-Nov-24 13:33N 01°13' E 103°54'3 2.7
2014-Nov-24 12:30N 01°16' E 103°55'0 0.1
2014-Nov-24 11:33N 01°16' E 103°55'0 0.0
2014-Nov-24 09:33N 01°16' E 103°55'0 0.0
2014-Nov-24 08:18N 01°16' E 103°55'0 0.0
2014-Nov-24 06:33N 01°16' E 103°55'0 0.0
2014-Nov-24 05:15N 01°16' E 103°55'4 1.7
2014-Nov-24 03:00N 01°12' E 103°54'4 7.2 180 / 21011.310.8 28.025.227.4
2014-Nov-24 02:30N 01°15' E 103°55'0 0.0
2014-Nov-24 01:33N 01°15' E 103°55'0 0.0
2014-Nov-24 00:21N 01°15' E 103°55'410.1
2014-Nov-24 00:00N 01°12' E 103°54'4 6.5 240 / 61010.1 5.4 27.523.927.4
2014-Nov-23 23:27N 01°15' E 103°55'0 0.0
2014-Nov-23 22:15N 01°15' E 103°55'0 0.0
2014-Nov-23 21:30N 01°15' E 103°55'0 0.1
2014-Nov-23 20:24N 01°15' E 103°55'0 0.0
2014-Nov-23 19:08N 01°15' E 103°55'0 0.0
2014-Nov-23 18:32N 01°15' E 103°55'0 0.0
2014-Nov-23 17:20N 01°15' E 103°55'0 0.1
2014-Nov-23 13:17N 01°16' E 103°55'0 0.1
2014-Nov-23 12:32N 01°16' E 103°55'4 6.9
2014-Nov-23 12:00N 01°12' E 103°54'4 6.3 280 / 31009.1 5.4 27.523.927.7
2014-Nov-23 11:23N 01°16' E 103°55'0 0.0
2014-Nov-23 09:20N 01°16' E 103°55'4 2.8
2014-Nov-23 08:00N 01°12' E 103°54'4 7.5 260 / 71007.9 5.4 29.024.827.5
2014-Nov-23 07:29N 01°16' E 103°55'0 0.0
2014-Nov-23 06:29N 01°16' E 103°55'0 0.1
2014-Nov-23 05:32N 01°16' E 103°55'0 0.1
2014-Nov-23 04:23N 01°15' E 103°55'0 0.1
2014-Nov-23 03:17N 01°15' E 103°55'412.2
2014-Nov-23 03:00N 01°12' E 103°54'4 5.9 050 / 51010.910.8 30.027.332.0
2014-Nov-23 02:23N 01°15' E 103°55'0 0.1
2014-Nov-23 01:23N 01°15' E 103°55'4 2.6
2014-Nov-23 00:00N 01°12' E 103°54'4 7.8 310 / 21010.0 5.4 27.524.727.4
2014-Nov-22 23:32N 01°15' E 103°55'0 0.0
2014-Nov-22 21:23N 01°15' E 103°55'4 9.2
2014-Nov-22 21:00N 01°12' E 103°54'4 7.7 360 / 51008.8 5.4 28.025.227.4
2014-Nov-22 20:32N 01°15' E 103°55'0 0.0
2014-Nov-22 19:17N 01°15' E 103°55'0 0.0
2014-Nov-22 18:32N 01°15' E 103°55'0 0.0
2014-Nov-22 17:05N 01°15' E 103°55'0 0.0
2014-Nov-22 16:26N 01°15' E 103°55'0 0.0
2014-Nov-22 15:20N 01°15' E 103°55'410.5
2014-Nov-22 15:00N 01°12' E 103°54'4 4.6 050 / 51010.9 5.4 29.024.8
2014-Nov-22 14:14N 01°15' E 103°55'0 0.1
2014-Nov-22 11:26N 01°16' E 103°55'0 0.0
2014-Nov-22 10:20N 01°16' E 103°55'4 2.8
2014-Nov-22 09:00N 01°12' E 103°54'4 8.1 110 / 51007.9 5.4 28.025.227.5
2014-Nov-22 08:31N 01°16' E 103°55'0 0.1
2014-Nov-22 07:19N 01°16' E 103°55'0 0.1
2014-Nov-22 06:07N 01°15' E 103°55'0 0.0
2014-Nov-22 05:31N 01°15' E 103°55'0 0.1
2014-Nov-22 04:25N 01°16' E 103°55'0 0.1
2014-Nov-22 01:19N 01°15' E 103°55'0 0.0
2014-Nov-22 00:28N 01°15' E 103°55'4 2.4
2014-Nov-21 23:00N 01°12' E 103°54'4 1.9 020 / 41009.6 5.4 27.024.127.5
2014-Nov-21 21:07N 01°15' E 103°55'0 0.0
2014-Nov-21 19:07N 01°15' E 103°55'0 0.0
2014-Nov-21 18:31N 01°15' E 103°55'0 0.0
2014-Nov-21 15:13N 01°15' E 103°55'0 0.0
2014-Nov-21 14:31N 01°15' E 103°55'0 0.0
2014-Nov-21 13:28N 01°15' E 103°55'0 0.0
2014-Nov-21 12:28N 01°15' E 103°55'0 0.1
2014-Nov-21 10:28N 01°16' E 103°55'0 0.1
2014-Nov-21 09:25N 01°16' E 103°55'0 0.0
2014-Nov-21 08:07N 01°16' E 103°55'0 0.0
2014-Nov-21 07:31N 01°16' E 103°55'0 0.1
2014-Nov-21 06:31N 01°16' E 103°55'0 0.0
2014-Nov-21 04:31N 01°16' E 103°55'0 0.2
2014-Nov-21 03:25N 01°16' E 103°55'0 0.1
2014-Nov-21 01:19N 01°15' E 103°55'4 1.5
2014-Nov-20 23:00N 01°12' E 103°54'4 1.3 300 / 31010.0 5.4 27.024.127.5
2014-Nov-20 20:18N 01°15' E 103°55'0 0.0
2014-Nov-20 19:24N 01°15' E 103°55'0 0.1
2014-Nov-20 18:33N 01°15' E 103°55'0 0.0
2014-Nov-20 17:15N 01°15' E 103°55'0 0.0
2014-Nov-20 16:12N 01°15' E 103°55'0 0.1
2014-Nov-20 15:27N 01°15' E 103°55'0 0.0
2014-Nov-20 14:12N 01°15' E 103°55'0 0.0
2014-Nov-20 10:15N 01°15' E 103°55'0 0.1
2014-Nov-20 08:33N 01°15' E 103°55'0 0.1
2014-Nov-20 07:18N 01°16' E 103°55'0 0.1
2014-Nov-20 06:24N 01°16' E 103°55'0 0.1
2014-Nov-20 03:09N 01°15' E 103°55'0 0.0
2014-Nov-20 00:27N 01°15' E 103°55'0 0.0
2014-Nov-19 22:24N 01°15' E 103°55'0 0.0
2014-Nov-19 21:21N 01°15' E 103°55'0 0.0
2014-Nov-19 20:18N 01°15' E 103°55'0 0.0
2014-Nov-19 18:15N 01°15' E 103°55'0 0.0
2014-Nov-19 17:30N 01°15' E 103°55'0 0.0
2014-Nov-19 16:06N 01°15' E 103°55'0 0.0
2014-Nov-19 12:24N 01°15' E 103°55'0 0.0
2014-Nov-19 10:20N 01°15' E 103°55'0 0.0
2014-Nov-19 09:05N 01°15' E 103°55'4 1.7
2014-Nov-19 07:00N 01°12' E 103°54'4 8.3 120 / 81009.1 5.4 33.022.127.5
2014-Nov-19 06:32N 01°16' E 103°55'0 0.0
2014-Nov-19 05:23N 01°16' E 103°55'0 0.0
2014-Nov-19 00:32N 01°15' E 103°55'4 6.6
2014-Nov-19 00:00N 01°12' E 103°54'4 5.9 330 / 21011.5 5.4 26.524.427.4
2014-Nov-18 23:23N 01°15' E 103°55'0 0.0
2014-Nov-18 22:14N 01°15' E 103°55'0 0.0
2014-Nov-18 21:17N 01°15' E 103°55'0 0.0
2014-Nov-18 19:23N 01°15' E 103°55'0 0.0
2014-Nov-18 17:32N 01°15' E 103°55'0 0.0
2014-Nov-18 16:29N 01°15' E 103°55'0 0.0
2014-Nov-18 13:32N 01°15' E 103°55'0 0.0
2014-Nov-18 11:23N 01°15' E 103°55'0 0.0
2014-Nov-18 10:32N 01°15' E 103°55'0 0.0
2014-Nov-18 09:11N 01°15' E 103°55'4 3.0
2014-Nov-18 08:00N 01°12' E 103°54'4 5.8 050 / 51009.610.8 26.024.627.7
2014-Nov-18 07:23N 01°15' E 103°55'0 0.0
2014-Nov-18 06:29N 01°15' E 103°55'0 0.0
2014-Nov-18 04:17N 01°15' E 103°55'0 0.0
2014-Nov-18 02:29N 01°15' E 103°55'0 0.0
2014-Nov-18 00:22N 01°15' E 103°55'0 0.0
2014-Nov-17 23:22N 01°15' E 103°55'0 0.0
2014-Nov-17 21:22N 01°15' E 103°55'0 0.0
2014-Nov-17 20:28N 01°15' E 103°55'4 7.4
2014-Nov-17 20:00N 01°12' E 103°54'4 3.8 330 / 51008.2 5.4 27.023.227.9
2014-Nov-17 19:04N 01°15' E 103°55'0 0.0
2014-Nov-17 18:16N 01°15' E 103°55'0 0.0
2014-Nov-17 17:31N 01°15' E 103°55'0 0.0
2014-Nov-17 16:28N 01°15' E 103°55'0 0.0
2014-Nov-17 15:25N 01°15' E 103°55'0 0.0
2014-Nov-17 14:31N 01°15' E 103°55'0 0.0
2014-Nov-17 13:28N 01°15' E 103°55'0 0.0
2014-Nov-17 10:13N 01°15' E 103°55'0 0.0
2014-Nov-17 08:16N 01°15' E 103°55'4 1.1
2014-Nov-17 05:00N 01°12' E 103°54'4 1.9 160 / 91008.4 5.4 35.023.727.9
2014-Nov-17 03:04N 01°15' E 103°55'0 0.0
2014-Nov-17 01:22N 01°15' E 103°55'0 0.0
2014-Nov-17 00:22N 01°15' E 103°55'0 0.0
2014-Nov-16 23:31N 01°15' E 103°55'0 0.0
2014-Nov-16 22:28N 01°15' E 103°55'0 0.0
2014-Nov-16 21:16N 01°15' E 103°55'0 0.0
2014-Nov-16 20:16N 01°15' E 103°55'0 0.1
2014-Nov-16 19:22N 01°15' E 103°55'0 0.1
2014-Nov-16 17:31N 01°15' E 103°55'0 0.0
2014-Nov-16 09:33N 01°15' E 103°55'  

Dump ship's entire track history